weather.gov     
National Weather Service

Terminal Aerodrome Forecast
NWS Homepage
This page is being discontinued on March 12, 2014.
The same data is available at this site. Please update your bookmarks.
Thank you, and we apologize for the inconvenience.
Please send an email to SR-SRH.Webmaster@noaa.gov with any concerns.


Current Version
Previous Version:    01  02  03  04  05  06  07  08  09  10  11  12  13  14  15  16  17  18  19  20  21  22  23  24  25  26  27  28  29  30  
   31  32  33  34  35  36  37  38  39  40  41  42  43  44  45  46  47  
[Printable]
063
FTUS45 KGJT 010155 AAB
TAFASE
TAF AMD
KASE 010155Z 0102/0124 18005KT P6SM VCSH SCT050 BKN090
      TEMPO 0102/0106 VRB12KT -SHRA BKN050
     FM010700 21004KT P6SM SCT090 BKN150
     FM011600 01005KT P6SM FEW090 SCT150
     FM011900 35007KT P6SM VCTS SCT090CB BKN150=


063
FTUS45 KGJT 010155 AAB
TAFASE
TAF AMD
KASE 010155Z 0102/0124 18005KT P6SM VCSH SCT050 BKN090
      TEMPO 0102/0106 VRB12KT -SHRA BKN050
     FM010700 21004KT P6SM SCT090 BKN150
     FM011600 01005KT P6SM FEW090 SCT150
     FM011900 35007KT P6SM VCTS SCT090CB BKN150=




U.S. Dept. of Commerce
NOAA National Weather Service
1325 East West Highway
Silver Spring, MD 20910
E-mail: w-nws.webmaster@noaa.gov
Page last modified: May 16, 2007
NATIONAL WEATHER SERVICE: for Safety, for Work, for Fun - FOR LIFE